Avon, Iowa
Current Conditions -  °F | °C
As of 10:54 AM on Thursday 27 Nov 2014 (Local Time) from KDSM Reporting Station
Scattered Clouds Scattered Clouds  
Wind Chill: -3°   Ceiling: Unl
Heat Index:   Visibility: 10mi
Dew Point: -3°   Wind: 7mph
Humidity: 61%   Direction: 320°NW
Pressure: 30.55"   Gusts: NA
Location:  41.4707°N, 93.4797°W
Report Text: KDSM 271654Z 32006KT 10SM FEW070 FEW250 SCT300 M13/M19 A3055 RMK AO2 SLP363 T11331194
Loading
Personal Weather Stations






























Interactive Weather Map New forecast layout! Learn more

10-Day Weather Forecast

Advertisements
Track Severe Weather on mobile